Mariner Of The Seas — C6FV9 — position and weather

sailwx.info

Track history (hours):
 
Tides and Currents Weather Stations Pressure Air Temp Water Temp Dewpoint Dewpoint Depression Visibility Wind Speed Wind Dir Waves Ship Positions

Mariner Of The Seas

Operator: Royal Caribbean Cruises Ltd

Last reported at 2016-Dec-08 05:32 UTC. Time now 2016-Dec-08 06:00 UTC.
Position N 01°16' E 103°52'.

Type: Passenger vessel. MMSI: 311493000.

Date/timePositionNaut miles runAvg speedWind from/ knotsBaromVisibWave heightAir tempDewpointWater temp
2016-Dec-08 05:32N 01°16' E 103°52'0 0.0
2016-Dec-08 03:17N 01°16' E 103°52'0 0.0
2016-Dec-08 02:32N 01°16' E 103°52'0 0.0
2016-Dec-08 01:20N 01°16' E 103°52'0 0.0
2016-Dec-08 00:08N 01°16' E 103°52'2 3.1
2016-Dec-07 23:32N 01°14' E 103°52'6610.2
2016-Dec-07 17:04N 01°37' E 102°50'2112.8
2016-Dec-07 15:25N 01°47' E 102°31'1113.3
2016-Dec-07 14:33N 01°52' E 102°21'20 0.4
2016-Dec-05 15:33N 02°05' E 102°06'1818.0
2016-Dec-05 14:33N 01°55' E 102°20'2118.7
2016-Dec-05 13:25N 01°45' E 102°39'7815.9
2016-Dec-05 08:32N 01°16' E 103°52'0 0.2
2016-Dec-05 07:33N 01°16' E 103°52'0 0.0
2016-Dec-05 06:33N 01°16' E 103°52'0 0.0
2016-Dec-05 05:33N 01°16' E 103°52'0 0.0
2016-Dec-05 04:33N 01°16' E 103°52'0 0.0
2016-Dec-05 03:33N 01°16' E 103°52'0 0.0
2016-Dec-05 02:24N 01°16' E 103°52'0 0.0
2016-Dec-05 01:33N 01°16' E 103°52'0 0.0
2016-Dec-05 00:33N 01°16' E 103°52'1 1.4
2016-Dec-04 23:33N 01°15' E 103°52'50 7.9
2016-Dec-04 17:14N 01°28' E 103°04'17 4.1
2016-Dec-04 13:07N 01°37' E 102°50'1 1.6
2016-Dec-04 12:31N 01°38' E 102°49'1 1.3
2016-Dec-04 11:33N 01°39' E 102°48'1 1.2
2016-Dec-04 10:32N 01°39' E 102°47'14 4.6
2016-Dec-04 07:33N 01°45' E 102°35'6 5.9
2016-Dec-04 06:33N 01°48' E 102°29'6 6.3
2016-Dec-04 05:33N 01°50' E 102°23'7 7.1
2016-Dec-04 04:32N 01°53' E 102°17'7 7.3
2016-Dec-04 03:33N 01°58' E 102°11'13 0.4
2016-Dec-02 16:31N 01°53' E 102°23'1813.9
2016-Dec-02 15:13N 01°45' E 102°40'913.1
2016-Dec-02 14:32N 01°41' E 102°48'6811.3
2016-Dec-02 08:30N 01°16' E 103°52'0 0.1
2016-Dec-02 06:28N 01°16' E 103°52'0 0.0
2016-Dec-02 05:22N 01°16' E 103°52'0 0.0
2016-Dec-02 04:31N 01°16' E 103°52'0 0.0
2016-Dec-02 03:28N 01°16' E 103°52'0 0.0
2016-Dec-02 02:28N 01°16' E 103°52'0 0.0
2016-Dec-02 01:28N 01°16' E 103°52'0 0.0
2016-Dec-02 00:28N 01°16' E 103°52'1 1.1
2016-Dec-01 23:33N 01°15' E 103°52'5310.6
2016-Dec-01 18:33N 01°29' E 103°01'1514.7
2016-Dec-01 17:33N 01°38' E 102°48'1615.2
2016-Dec-01 16:32N 01°44' E 102°34'1615.8
2016-Dec-01 15:33N 01°50' E 102°20'  
2016-Nov-28 16:25N 01°53' E 102°21'2115.3
2016-Nov-28 15:05N 01°45' E 102°40'7914.2
2016-Nov-28 09:30N 01°13' E 103°52'4 2.9
2016-Nov-28 08:18N 01°16' E 103°52'0 0.0
2016-Nov-28 07:30N 01°16' E 103°52'  
Track history (hours):
 
Tides and Currents Weather Stations Pressure Air Temp Water Temp Dewpoint Dewpoint Depression Visibility Wind Speed Wind Dir Waves Ship Positions

Mariner Of The Seas

Operator: Royal Caribbean Cruises Ltd

Last reported at 2016-Dec-08 05:32 UTC. Time now 2016-Dec-08 06:00 UTC.
Position N 01°16' E 103°52'.

Type: Passenger vessel. MMSI: 311493000.

Date/timePositionNaut miles runAvg speedWind from/ knotsBaromVisibWave heightAir tempDewpointWater temp
2016-Dec-08 05:32N 01°16' E 103°52'0 0.0
2016-Dec-08 03:17N 01°16' E 103°52'0 0.0
2016-Dec-08 02:32N 01°16' E 103°52'0 0.0
2016-Dec-08 01:20N 01°16' E 103°52'0 0.0
2016-Dec-08 00:08N 01°16' E 103°52'2 3.1
2016-Dec-07 23:32N 01°14' E 103°52'6610.2
2016-Dec-07 17:04N 01°37' E 102°50'2112.8
2016-Dec-07 15:25N 01°47' E 102°31'1113.3
2016-Dec-07 14:33N 01°52' E 102°21'20 0.4
2016-Dec-05 15:33N 02°05' E 102°06'1818.0
2016-Dec-05 14:33N 01°55' E 102°20'2118.7
2016-Dec-05 13:25N 01°45' E 102°39'7815.9
2016-Dec-05 08:32N 01°16' E 103°52'0 0.2
2016-Dec-05 07:33N 01°16' E 103°52'0 0.0
2016-Dec-05 06:33N 01°16' E 103°52'0 0.0
2016-Dec-05 05:33N 01°16' E 103°52'0 0.0
2016-Dec-05 04:33N 01°16' E 103°52'0 0.0
2016-Dec-05 03:33N 01°16' E 103°52'0 0.0
2016-Dec-05 02:24N 01°16' E 103°52'0 0.0
2016-Dec-05 01:33N 01°16' E 103°52'0 0.0
2016-Dec-05 00:33N 01°16' E 103°52'1 1.4
2016-Dec-04 23:33N 01°15' E 103°52'50 7.9
2016-Dec-04 17:14N 01°28' E 103°04'17 4.1
2016-Dec-04 13:07N 01°37' E 102°50'1 1.6
2016-Dec-04 12:31N 01°38' E 102°49'1 1.3
2016-Dec-04 11:33N 01°39' E 102°48'1 1.2
2016-Dec-04 10:32N 01°39' E 102°47'14 4.6
2016-Dec-04 07:33N 01°45' E 102°35'6 5.9
2016-Dec-04 06:33N 01°48' E 102°29'6 6.3
2016-Dec-04 05:33N 01°50' E 102°23'7 7.1
2016-Dec-04 04:32N 01°53' E 102°17'7 7.3
2016-Dec-04 03:33N 01°58' E 102°11'13 0.4
2016-Dec-02 16:31N 01°53' E 102°23'1813.9
2016-Dec-02 15:13N 01°45' E 102°40'913.1
2016-Dec-02 14:32N 01°41' E 102°48'6811.3
2016-Dec-02 08:30N 01°16' E 103°52'0 0.1
2016-Dec-02 06:28N 01°16' E 103°52'0 0.0
2016-Dec-02 05:22N 01°16' E 103°52'0 0.0
2016-Dec-02 04:31N 01°16' E 103°52'0 0.0
2016-Dec-02 03:28N 01°16' E 103°52'0 0.0
2016-Dec-02 02:28N 01°16' E 103°52'0 0.0
2016-Dec-02 01:28N 01°16' E 103°52'0 0.0
2016-Dec-02 00:28N 01°16' E 103°52'1 1.1
2016-Dec-01 23:33N 01°15' E 103°52'5310.6
2016-Dec-01 18:33N 01°29' E 103°01'1514.7
2016-Dec-01 17:33N 01°38' E 102°48'1615.2
2016-Dec-01 16:32N 01°44' E 102°34'1615.8
2016-Dec-01 15:33N 01°50' E 102°20'  
2016-Nov-28 16:25N 01°53' E 102°21'2115.3
2016-Nov-28 15:05N 01°45' E 102°40'7914.2
2016-Nov-28 09:30N 01°13' E 103°52'4 2.9
2016-Nov-28 08:18N 01°16' E 103°52'0 0.0
2016-Nov-28 07:30N 01°16' E 103°52'  

Dump ship's entire track history